Time;durP1;ratioP1;P1;durP2;ratioP2;P2;SDS_P1;SDS_P2;PMS_P1;PMS_P2;Temp;Humidity;BMP_temperature;BMP_pressure;BME280_temperature;BME280_humidity;BME280_pressure;Samples;Min_cycle;Max_cycle;Signal;HPM_P1;HPM_P2
2022/01/09 00:02:02;;;;;;;4.65;2.63;;;3.70;99.90;;;;;;5091665;28;20027;-46
2022/01/09 00:04:28;;;;;;;5.65;2.75;;;3.70;99.90;;;;;;5082395;28;20024;-47
2022/01/09 00:06:53;;;;;;;4.45;2.58;;;3.70;99.90;;;;;;5092214;28;20608;-45
2022/01/09 00:09:19;;;;;;;3.80;2.17;;;3.60;99.90;;;;;;5091356;28;20028;-46
2022/01/09 00:11:44;;;;;;;5.60;2.67;;;3.60;99.90;;;;;;5092512;28;20043;-48
2022/01/09 00:14:10;;;;;;;4.07;2.40;;;3.60;99.90;;;;;;5091900;28;20032;-45
2022/01/09 00:16:35;;;;;;;5.18;2.53;;;3.70;99.90;;;;;;5090613;28;20482;-45
2022/01/09 00:19:01;;;;;;;3.65;2.30;;;3.70;99.90;;;;;;5090926;28;20028;-45
2022/01/09 00:21:27;;;;;;;4.43;2.47;;;3.70;99.90;;;;;;5091657;28;20077;-45
2022/01/09 00:23:52;;;;;;;5.07;2.30;;;3.70;99.90;;;;;;5091804;28;20036;-46
2022/01/09 00:26:18;;;;;;;3.53;2.35;;;3.70;99.90;;;;;;5091649;28;20086;-45
2022/01/09 00:28:43;;;;;;;4.65;2.50;;;3.70;99.90;;;;;;5090934;28;20066;-46
2022/01/09 00:31:09;;;;;;;5.30;2.35;;;3.60;99.90;;;;;;5091426;28;20536;-46
2022/01/09 00:33:34;;;;;;;4.85;2.50;;;3.60;99.90;;;;;;5082217;28;20020;-48
2022/01/09 00:36:00;;;;;;;4.68;2.50;;;3.60;99.90;;;;;;5083236;28;20058;-45
2022/01/09 00:38:25;;;;;;;6.90;2.80;;;3.60;99.90;;;;;;5090828;28;20028;-47
2022/01/09 00:40:51;;;;;;;8.65;2.60;;;3.50;99.90;;;;;;5091259;28;20024;-45
2022/01/09 00:43:17;;;;;;;6.47;2.50;;;3.50;99.90;;;;;;5090172;28;20422;-44
2022/01/09 00:45:43;;;;;;;5.80;2.65;;;3.60;99.90;;;;;;5091274;28;20028;-45
2022/01/09 00:48:09;;;;;;;4.38;2.30;;;3.60;99.90;;;;;;5090262;28;20036;-45
2022/01/09 00:50:36;;;;;;;3.80;3.33;;;3.60;99.90;;;;;;5091145;28;20024;-46
2022/01/09 00:53:06;;;;;;;5.07;2.17;;;3.60;99.90;;;;;;5091103;28;20016;-45
2022/01/09 00:55:32;;;;;;;4.65;2.60;;;3.60;99.90;;;;;;5090735;28;20426;-45
2022/01/09 00:57:57;;;;;;;4.68;2.70;;;3.50;99.90;;;;;;5078703;28;20025;-45
2022/01/09 01:00:23;;;;;;;5.22;2.95;;;3.60;99.90;;;;;;5086020;28;20028;-44
2022/01/09 01:02:48;;;;;;;7.88;2.67;;;3.60;99.90;;;;;;5090737;28;20020;-45
2022/01/09 01:05:14;;;;;;;2.80;2.20;;;3.60;99.90;;;;;;5091149;28;20417;-46
2022/01/09 01:07:40;;;;;;;5.35;2.00;;;3.60;99.90;;;;;;5090814;28;20024;-46
2022/01/09 01:10:06;;;;;;;5.10;2.70;;;3.70;99.90;;;;;;5089246;28;20540;-46
2022/01/09 01:12:33;;;;;;;4.65;2.22;;;3.70;99.90;;;;;;5089614;28;20062;-45
2022/01/09 01:14:59;;;;;;;4.25;2.45;;;3.70;99.90;;;;;;5089500;28;20115;-45
2022/01/09 01:17:26;;;;;;;4.20;2.45;;;3.70;99.90;;;;;;5090398;28;20609;-46
2022/01/09 01:19:53;;;;;;;5.30;2.50;;;3.70;99.90;;;;;;5090718;28;20351;-45
2022/01/09 01:22:19;;;;;;;5.85;2.38;;;3.60;99.90;;;;;;5089256;28;20024;-45
2022/01/09 01:24:46;;;;;;;6.25;2.35;;;3.70;99.90;;;;;;5090588;28;20247;-45
2022/01/09 01:27:12;;;;;;;7.20;4.57;;;3.60;99.90;;;;;;5083417;28;20397;-47
2022/01/09 01:29:38;;;;;;;3.67;2.92;;;3.70;99.90;;;;;;5081220;28;20020;-45
2022/01/09 01:32:05;;;;;;;5.03;2.53;;;3.60;99.90;;;;;;5087300;28;20050;-45
2022/01/09 01:34:32;;;;;;;5.32;2.55;;;3.60;99.90;;;;;;5078253;28;20032;-44
2022/01/09 01:36:58;;;;;;;2.88;1.90;;;3.60;99.90;;;;;;5050072;28;20498;-45
2022/01/09 01:39:23;;;;;;;7.50;2.78;;;3.60;99.90;;;;;;5048108;28;20033;-45
2022/01/09 01:41:49;;;;;;;5.93;3.03;;;3.60;99.90;;;;;;5050018;28;20044;-45
2022/01/09 01:44:15;;;;;;;3.92;2.10;;;3.60;99.90;;;;;;5050146;28;20021;-45
2022/01/09 01:46:40;;;;;;;5.20;2.47;;;3.60;99.90;;;;;;5049945;28;20021;-45
2022/01/09 01:49:07;;;;;;;6.22;2.75;;;3.60;99.90;;;;;;5049138;28;20067;-45
2022/01/09 01:51:34;;;;;;;5.25;2.50;;;3.60;99.90;;;;;;5049809;28;20025;-45
2022/01/09 01:54:01;;;;;;;8.63;2.97;;;3.60;99.90;;;;;;5049491;28;20021;-47
2022/01/09 01:56:27;;;;;;;5.07;2.40;;;3.70;99.90;;;;;;5049980;28;20029;-46
2022/01/09 01:58:53;;;;;;;5.93;2.28;;;3.60;99.90;;;;;;5048756;28;20395;-44
2022/01/09 02:01:20;;;;;;;5.00;2.70;;;3.50;99.90;;;;;;5073050;28;20410;-46
2022/01/09 02:03:45;;;;;;;4.38;2.40;;;3.50;99.90;;;;;;5088020;28;20031;-45
2022/01/09 02:06:14;;;;;;;8.50;2.40;;;3.40;99.90;;;;;;5089730;28;20028;-45
2022/01/09 02:08:41;;;;;;;4.65;2.20;;;3.40;99.90;;;;;;5088971;28;20024;-45
2022/01/09 02:11:06;;;;;;;2.45;2.10;;;3.40;99.90;;;;;;5089894;28;20038;-47
2022/01/09 02:13:32;;;;;;;5.80;2.63;;;3.40;99.90;;;;;;5089561;28;20027;-48
2022/01/09 02:15:59;;;;;;;7.82;2.58;;;3.50;99.90;;;;;;5089398;28;20032;-47
2022/01/09 02:18:25;;;;;;;3.17;2.30;;;3.50;99.90;;;;;;5088997;28;20054;-46
2022/01/09 02:20:52;;;;;;;5.13;2.28;;;3.40;99.90;;;;;;5090035;28;20470;-45
2022/01/09 02:23:19;;;;;;;5.35;2.65;;;3.40;99.90;;;;;;5089428;28;20028;-47
2022/01/09 02:25:46;;;;;;;5.55;2.65;;;3.30;99.90;;;;;;5089492;28;20028;-45
2022/01/09 02:28:14;;;;;;;4.20;2.45;;;3.30;99.90;;;;;;5088873;28;20132;-45
2022/01/09 02:30:42;;;;;;;7.22;2.50;;;3.30;99.90;;;;;;5086575;28;20439;-45
2022/01/09 02:33:09;;;;;;;5.47;2.50;;;3.30;99.90;;;;;;5075851;28;20059;-44
2022/01/09 02:35:36;;;;;;;4.03;2.85;;;3.20;99.90;;;;;;5081026;28;20028;-51
2022/01/09 02:38:04;;;;;;;3.72;2.40;;;3.10;99.90;;;;;;5088748;28;20016;-45
2022/01/09 02:40:29;;;;;;;4.53;2.90;;;3.20;99.90;;;;;;5087857;28;20024;-45
2022/01/09 02:42:55;;;;;;;2.97;2.22;;;3.20;99.90;;;;;;5089041;28;20528;-44
2022/01/09 02:45:23;;;;;;;3.38;1.95;;;3.20;99.90;;;;;;5087706;28;20020;-45
2022/01/09 02:47:50;;;;;;;4.78;2.78;;;3.20;99.90;;;;;;5087175;28;20027;-44
2022/01/09 02:50:30;;;;;;;4.50;2.60;;;3.20;99.90;;;;;;5087148;28;20433;-45
2022/01/09 02:53:13;;;;;;;3.25;2.33;;;3.20;99.90;;;;;;5089187;28;20445;-44
2022/01/09 02:55:39;;;;;;;4.70;2.50;;;3.20;99.90;;;;;;5088952;28;20132;-45
2022/01/09 02:58:05;;;;;;;4.63;2.10;;;3.20;99.90;;;;;;5088442;28;20422;-45
2022/01/09 03:00:35;;;;;;;4.03;2.63;;;3.20;99.90;;;;;;5088829;28;20032;-45
2022/01/09 03:03:00;;;;;;;8.83;2.50;;;3.20;99.90;;;;;;5083802;28;20035;-44
2022/01/09 03:05:27;;;;;;;9.50;2.50;;;3.20;99.90;;;;;;5074252;28;20058;-45
2022/01/09 03:07:53;;;;;;;4.00;2.35;;;3.20;99.90;;;;;;5058284;28;20060;-46
2022/01/09 03:10:20;;;;;;;4.65;2.88;;;3.20;99.90;;;;;;5056864;28;20714;-45
2022/01/09 03:12:47;;;;;;;5.45;2.80;;;3.20;99.90;;;;;;5059167;28;20280;-45
2022/01/09 03:15:14;;;;;;;6.88;2.22;;;3.20;99.90;;;;;;5060040;28;20552;-45
2022/01/09 03:17:40;;;;;;;4.70;2.55;;;3.20;99.90;;;;;;5059692;28;20028;-45
2022/01/09 03:20:08;;;;;;;4.45;3.10;;;3.20;99.90;;;;;;5058522;28;20274;-44
2022/01/09 03:22:34;;;;;;;3.53;2.38;;;3.20;99.90;;;;;;5058219;28;20233;-45
2022/01/09 03:24:59;;;;;;;4.38;2.38;;;3.10;99.90;;;;;;5057352;28;20032;-46
2022/01/09 03:27:25;;;;;;;3.88;2.33;;;3.10;99.90;;;;;;5059121;28;20029;-45
2022/01/09 03:29:50;;;;;;;4.10;2.20;;;3.10;99.90;;;;;;5056106;28;20583;-45
2022/01/09 03:32:16;;;;;;;3.90;2.40;;;3.10;99.90;;;;;;5059774;28;20056;-44
2022/01/09 03:34:41;;;;;;;7.97;2.50;;;3.20;99.90;;;;;;5066062;28;20033;-45
2022/01/09 03:37:07;;;;;;;5.18;2.80;;;3.20;99.90;;;;;;5058665;28;20037;-45
2022/01/09 03:39:33;;;;;;;3.35;2.10;;;3.20;99.90;;;;;;5057269;28;20017;-45
2022/01/09 03:41:59;;;;;;;3.22;2.20;;;3.20;99.90;;;;;;5058985;28;20024;-45
2022/01/09 03:44:28;;;;;;;3.03;2.15;;;3.20;99.90;;;;;;5062545;28;20041;-45
2022/01/09 03:46:55;;;;;;;3.40;2.30;;;3.20;99.90;;;;;;5058656;28;20060;-45
2022/01/09 03:49:22;;;;;;;2.90;2.22;;;3.30;99.90;;;;;;5055108;28;20025;-45
2022/01/09 03:51:50;;;;;;;3.67;2.28;;;3.40;99.90;;;;;;5057320;28;20107;-44
2022/01/09 03:54:17;;;;;;;5.22;2.75;;;3.40;99.90;;;;;;5058632;28;20052;-44
2022/01/09 03:56:43;;;;;;;3.55;2.60;;;3.30;99.90;;;;;;5057457;28;20048;-45
2022/01/09 03:59:09;;;;;;;6.93;3.00;;;3.20;99.90;;;;;;5057551;28;20075;-44
2022/01/09 04:01:34;;;;;;;4.25;2.50;;;3.20;99.90;;;;;;5060491;28;20109;-44
2022/01/09 04:04:00;;;;;;;3.17;2.05;;;3.20;99.90;;;;;;5069431;28;20036;-45
2022/01/09 04:06:25;;;;;;;2.90;1.98;;;3.20;99.90;;;;;;5056805;28;20028;-45
2022/01/09 04:08:52;;;;;;;2.97;2.22;;;3.20;99.90;;;;;;5057353;28;20029;-44
2022/01/09 04:11:23;;;;;;;3.80;2.20;;;3.20;99.90;;;;;;5058339;28;20100;-44
2022/01/09 04:13:49;;;;;;;3.55;2.33;;;3.20;99.90;;;;;;5065466;28;20033;-44
2022/01/09 04:16:15;;;;;;;4.45;2.17;;;3.20;99.90;;;;;;5058036;28;20017;-45
2022/01/09 04:18:40;;;;;;;4.68;2.10;;;3.30;99.90;;;;;;5060002;28;20043;-44
2022/01/09 04:21:06;;;;;;;3.00;2.25;;;3.30;99.90;;;;;;5061065;28;20021;-45
2022/01/09 04:23:31;;;;;;;2.13;1.60;;;3.40;99.90;;;;;;5071337;28;20025;-44
2022/01/09 04:25:57;;;;;;;3.85;2.00;;;3.50;99.90;;;;;;5071422;28;20035;-44
2022/01/09 04:28:23;;;;;;;5.43;1.90;;;3.50;99.90;;;;;;5070775;28;20036;-44
2022/01/09 04:30:48;;;;;;;3.95;2.30;;;3.50;99.90;;;;;;5078788;28;20208;-45
2022/01/09 04:33:14;;;;;;;5.97;2.22;;;3.50;99.90;;;;;;5085128;28;20085;-45
2022/01/09 04:35:41;;;;;;;2.80;2.08;;;3.50;99.90;;;;;;5091378;28;20024;-44
2022/01/09 04:38:06;;;;;;;3.22;2.00;;;3.50;99.90;;;;;;5091409;28;20031;-44
2022/01/09 04:40:32;;;;;;;5.60;2.38;;;3.60;99.90;;;;;;5090815;28;20028;-45
2022/01/09 04:43:00;;;;;;;5.18;2.70;;;3.50;99.90;;;;;;5091401;28;20020;-45
2022/01/09 04:45:28;;;;;;;3.85;2.30;;;3.50;99.90;;;;;;5091359;28;20024;-45
2022/01/09 04:47:56;;;;;;;4.43;2.40;;;3.50;99.90;;;;;;5090642;28;20024;-44
2022/01/09 04:50:31;;;;;;;5.32;2.60;;;3.50;99.90;;;;;;5090727;28;20099;-46
2022/01/09 04:53:03;;;;;;;2.63;2.05;;;3.50;99.90;;;;;;5091125;28;20083;-45
2022/01/09 04:55:29;;;;;;;4.20;2.20;;;3.50;99.90;;;;;;5091284;28;20024;-44
2022/01/09 04:57:56;;;;;;;5.38;2.85;;;3.50;99.90;;;;;;5090844;28;20024;-45
2022/01/09 05:00:22;;;;;;;4.50;2.40;;;3.40;99.90;;;;;;5089831;28;20095;-45
2022/01/09 05:02:47;;;;;;;4.60;2.38;;;3.50;99.90;;;;;;5082272;28;20016;-46
2022/01/09 05:05:13;;;;;;;3.33;2.55;;;3.40;99.90;;;;;;5091308;28;20016;-44
2022/01/09 05:07:39;;;;;;;3.58;1.73;;;3.50;99.90;;;;;;5083546;28;20097;-44
2022/01/09 05:10:06;;;;;;;3.53;1.92;;;3.40;99.90;;;;;;5082647;28;20032;-44
2022/01/09 05:12:32;;;;;;;2.85;2.10;;;3.30;99.90;;;;;;5090911;28;20028;-44
2022/01/09 05:14:58;;;;;;;4.68;2.20;;;3.30;99.90;;;;;;5090866;28;20032;-45
2022/01/09 05:17:23;;;;;;;3.95;2.28;;;3.20;99.90;;;;;;5090545;28;20474;-44
2022/01/09 05:19:52;;;;;;;3.55;2.30;;;3.20;99.90;;;;;;5088852;28;20019;-45
2022/01/09 05:22:18;;;;;;;4.85;2.28;;;3.20;99.90;;;;;;5090647;28;20027;-45
2022/01/09 05:24:43;;;;;;;6.18;2.80;;;3.10;99.90;;;;;;5090559;28;20489;-44
2022/01/09 05:27:09;;;;;;;3.53;2.72;;;3.10;99.90;;;;;;5090512;28;20271;-45
2022/01/09 05:29:34;;;;;;;3.28;2.50;;;3.10;99.90;;;;;;5089369;28;20470;-47
2022/01/09 05:32:00;;;;;;;6.38;2.75;;;3.20;99.90;;;;;;5090471;28;20028;-44
2022/01/09 05:34:25;;;;;;;6.53;2.88;;;3.10;99.90;;;;;;5078745;28;20025;-45
2022/01/09 05:36:51;;;;;;;3.58;2.65;;;3.10;99.90;;;;;;5088955;28;20028;-45
2022/01/09 05:39:16;;;;;;;4.65;2.50;;;3.00;99.90;;;;;;5088402;28;20020;-44
2022/01/09 05:41:43;;;;;;;4.15;3.08;;;3.00;99.90;;;;;;5090202;28;20499;-45
2022/01/09 05:44:09;;;;;;;5.10;2.80;;;3.00;99.90;;;;;;5090280;28;20405;-45
2022/01/09 05:46:34;;;;;;;4.15;2.80;;;3.00;99.90;;;;;;5083127;28;20037;-45
2022/01/09 05:49:00;;;;;;;4.88;3.08;;;2.90;99.90;;;;;;5057488;28;20029;-45
2022/01/09 05:51:25;;;;;;;4.45;2.95;;;2.90;99.90;;;;;;5061540;28;20081;-46
2022/01/09 05:53:51;;;;;;;6.43;3.40;;;2.90;99.90;;;;;;5058608;28;20390;-46
2022/01/09 05:56:16;;;;;;;3.55;2.92;;;2.80;99.90;;;;;;5057593;28;20033;-45
2022/01/09 05:58:42;;;;;;;6.30;3.88;;;2.80;99.90;;;;;;5060001;28;20994;-45
2022/01/09 06:01:07;;;;;;;6.22;3.10;;;2.80;99.90;;;;;;5062375;28;20062;-48
2022/01/09 06:03:33;;;;;;;5.45;3.08;;;2.80;99.90;;;;;;5064062;28;20087;-45
2022/01/09 06:05:59;;;;;;;4.68;3.00;;;2.80;99.90;;;;;;5060414;28;20020;-46
2022/01/09 06:08:24;;;;;;;8.75;3.25;;;2.80;99.90;;;;;;5059721;28;20078;-47
2022/01/09 06:10:50;;;;;;;5.13;3.40;;;2.80;99.90;;;;;;5058120;28;20028;-46
2022/01/09 06:13:15;;;;;;;3.80;2.90;;;2.80;99.90;;;;;;5058083;28;20063;-44
2022/01/09 06:15:41;;;;;;;6.63;2.97;;;2.80;99.90;;;;;;5066587;28;20028;-45
2022/01/09 06:18:06;;;;;;;3.88;3.03;;;2.70;99.90;;;;;;5074797;28;20027;-44
2022/01/09 06:20:32;;;;;;;7.05;3.20;;;2.80;99.90;;;;;;5074421;28;20442;-45
2022/01/09 06:22:57;;;;;;;7.75;3.42;;;2.80;99.90;;;;;;5069146;28;20032;-45
2022/01/09 06:25:23;;;;;;;3.80;3.20;;;2.70;99.90;;;;;;5069112;28;20386;-46
2022/01/09 06:27:49;;;;;;;5.85;3.50;;;2.80;99.90;;;;;;5069073;28;20483;-45
2022/01/09 06:30:14;;;;;;;6.25;3.35;;;2.70;99.90;;;;;;5059718;28;20549;-44
2022/01/09 06:32:40;;;;;;;6.95;3.67;;;2.70;99.90;;;;;;5073796;28;20032;-45
2022/01/09 06:35:06;;;;;;;5.63;3.50;;;2.70;99.90;;;;;;5075004;28;20085;-45
2022/01/09 06:37:32;;;;;;;6.53;4.28;;;2.70;99.90;;;;;;5054643;28;20017;-44
2022/01/09 06:39:58;;;;;;;5.38;3.40;;;2.60;99.90;;;;;;5059570;28;20028;-45
2022/01/09 06:42:23;;;;;;;6.35;4.07;;;2.70;99.90;;;;;;5067127;28;20033;-46
2022/01/09 06:44:49;;;;;;;6.07;4.38;;;2.60;99.90;;;;;;5064164;28;20241;-45
2022/01/09 06:47:15;;;;;;;6.35;4.20;;;2.70;99.90;;;;;;5060971;28;20485;-44
2022/01/09 06:49:40;;;;;;;7.75;4.40;;;2.60;99.90;;;;;;5065810;28;20047;-46
2022/01/09 06:52:06;;;;;;;6.15;4.07;;;2.60;99.90;;;;;;5061600;28;20053;-49
2022/01/09 06:54:32;;;;;;;8.32;4.47;;;2.60;99.90;;;;;;5060681;28;20505;-48
2022/01/09 06:56:57;;;;;;;7.93;4.72;;;2.60;99.90;;;;;;5066170;28;20043;-45
2022/01/09 06:59:23;;;;;;;7.32;4.88;;;2.60;99.90;;;;;;5066870;28;20546;-45
2022/01/09 07:01:48;;;;;;;7.15;4.72;;;2.60;99.90;;;;;;5063930;28;20344;-46
2022/01/09 07:04:14;;;;;;;6.43;4.13;;;2.60;99.90;;;;;;5066587;28;20067;-46
2022/01/09 07:06:39;;;;;;;7.75;4.72;;;2.60;99.90;;;;;;5070563;28;20536;-45
2022/01/09 07:09:05;;;;;;;7.68;4.75;;;2.60;99.90;;;;;;5064428;28;20081;-45
2022/01/09 07:11:31;;;;;;;6.88;4.53;;;2.60;99.90;;;;;;5066241;28;20039;-46
2022/01/09 07:13:56;;;;;;;7.85;4.90;;;2.60;99.90;;;;;;5065836;28;20457;-46
2022/01/09 07:16:22;;;;;;;8.48;4.38;;;2.60;99.90;;;;;;5069746;28;20044;-45
2022/01/09 07:18:47;;;;;;;8.82;5.57;;;2.60;99.90;;;;;;5070359;28;20385;-45
2022/01/09 07:21:13;;;;;;;10.13;5.15;;;2.60;99.90;;;;;;5064676;28;20382;-45
2022/01/09 07:23:38;;;;;;;9.65;5.18;;;2.60;99.90;;;;;;5077585;28;20032;-46
2022/01/09 07:26:04;;;;;;;9.02;4.60;;;2.60;99.90;;;;;;5074201;28;20378;-47
2022/01/09 07:28:29;;;;;;;8.32;5.72;;;2.60;99.90;;;;;;5068083;28;20078;-45
2022/01/09 07:30:56;;;;;;;9.00;5.40;;;2.60;99.90;;;;;;5068153;28;20435;-46
2022/01/09 07:33:22;;;;;;;6.35;4.55;;;2.60;99.90;;;;;;5073594;28;20377;-47
2022/01/09 07:35:47;;;;;;;7.88;4.88;;;2.50;99.90;;;;;;5079996;28;20020;-45
2022/01/09 07:38:13;;;;;;;9.68;6.78;;;2.60;99.90;;;;;;5088368;28;20122;-45
2022/01/09 07:40:38;;;;;;;9.68;5.97;;;2.50;99.90;;;;;;5088197;28;20438;-45
2022/01/09 07:43:04;;;;;;;8.68;5.25;;;2.60;99.90;;;;;;5079013;28;20576;-45
2022/01/09 07:45:29;;;;;;;10.93;6.22;;;2.60;99.90;;;;;;5088512;28;20030;-45
2022/01/09 07:47:56;;;;;;;7.63;5.25;;;2.60;99.90;;;;;;5086808;28;20111;-45
2022/01/09 07:50:23;;;;;;;9.20;6.57;;;2.60;99.90;;;;;;5065989;28;20039;-45
2022/01/09 07:52:49;;;;;;;8.88;5.93;;;2.60;99.90;;;;;;5090913;28;20470;-46
2022/01/09 07:55:15;;;;;;;10.63;5.90;;;2.60;99.90;;;;;;5092496;28;20066;-45
2022/01/09 07:57:41;;;;;;;10.07;6.45;;;2.60;99.90;;;;;;5090302;28;20056;-45
2022/01/09 08:00:09;;;;;;;9.60;5.72;;;2.50;99.90;;;;;;5091886;28;20144;-45
2022/01/09 08:02:35;;;;;;;10.30;6.05;;;2.60;99.90;;;;;;5089773;28;20520;-47
2022/01/09 08:05:00;;;;;;;10.07;6.25;;;2.60;99.90;;;;;;5083274;28;20123;-45
2022/01/09 08:07:26;;;;;;;9.23;6.10;;;2.60;99.90;;;;;;5090718;28;20123;-46
2022/01/09 08:09:51;;;;;;;10.82;7.10;;;2.60;99.90;;;;;;5090056;28;20059;-46
2022/01/09 08:12:17;;;;;;;11.43;6.97;;;2.60;99.90;;;;;;5092097;28;20028;-45
2022/01/09 08:14:44;;;;;;;11.27;6.03;;;2.60;99.90;;;;;;5091948;28;20032;-45
2022/01/09 08:17:10;;;;;;;10.88;6.22;;;2.70;99.90;;;;;;5071580;28;20502;-45
2022/01/09 08:19:35;;;;;;;7.43;5.60;;;2.70;99.90;;;;;;5050653;28;20045;-45
2022/01/09 08:22:05;;;;;;;11.50;7.30;;;2.70;99.90;;;;;;5051636;28;20092;-46
2022/01/09 08:24:34;;;;;;;8.50;6.10;;;2.80;99.90;;;;;;5051349;28;20425;-45
2022/01/09 08:27:00;;;;;;;9.43;6.07;;;2.80;99.90;;;;;;5051537;28;20067;-46
2022/01/09 08:29:26;;;;;;;10.88;6.38;;;2.80;99.90;;;;;;5050721;28;20459;-46
2022/01/09 08:31:51;;;;;;;10.18;6.00;;;2.90;99.90;;;;;;5057456;28;20017;-46
2022/01/09 08:34:17;;;;;;;9.88;6.22;;;2.80;99.90;;;;;;5067496;28;20037;-45
2022/01/09 08:36:42;;;;;;;10.13;6.55;;;2.80;99.90;;;;;;5057836;28;20391;-45
2022/01/09 08:39:10;;;;;;;12.45;6.45;;;2.90;99.90;;;;;;5050604;28;20017;-46
2022/01/09 08:41:36;;;;;;;10.30;7.00;;;2.90;99.90;;;;;;5051610;28;20044;-46
2022/01/09 08:44:01;;;;;;;8.95;6.68;;;2.90;99.90;;;;;;5055123;28;20467;-45
2022/01/09 08:46:28;;;;;;;10.30;6.93;;;2.80;99.90;;;;;;5061646;28;20542;-46
2022/01/09 08:48:53;;;;;;;15.30;7.68;;;3.00;99.90;;;;;;5058978;28;20364;-46
2022/01/09 08:51:19;;;;;;;12.43;6.63;;;2.90;99.90;;;;;;5052002;28;20040;-45
2022/01/09 08:53:50;;;;;;;9.23;7.50;;;2.90;99.90;;;;;;5070507;28;20068;-46
2022/01/09 08:56:17;;;;;;;11.70;7.70;;;2.90;99.90;;;;;;5070860;28;20040;-46
2022/01/09 08:58:42;;;;;;;11.20;8.10;;;2.90;99.90;;;;;;5070739;28;20078;-47
2022/01/09 09:01:08;;;;;;;10.82;7.68;;;2.80;99.90;;;;;;5070743;28;20324;-45
2022/01/09 09:03:36;;;;;;;12.63;8.23;;;2.70;99.90;;;;;;5077887;28;20279;-45
2022/01/09 09:06:02;;;;;;;14.38;8.57;;;2.60;99.90;;;;;;5083005;28;20020;-47
2022/01/09 09:08:27;;;;;;;13.90;8.80;;;2.70;99.90;;;;;;5090615;28;20527;-46
2022/01/09 09:10:53;;;;;;;11.00;7.85;;;2.60;99.90;;;;;;5090383;28;20414;-46
2022/01/09 09:13:18;;;;;;;13.23;8.57;;;2.70;99.90;;;;;;5090686;28;20110;-46
2022/01/09 09:15:44;;;;;;;13.88;8.55;;;2.80;99.90;;;;;;5090504;28;20024;-45
2022/01/09 09:18:09;;;;;;;14.35;9.40;;;2.80;99.90;;;;;;5090229;28;20024;-45
2022/01/09 09:20:36;;;;;;;17.75;8.82;;;2.70;99.90;;;;;;5086408;28;20031;-45
2022/01/09 09:23:01;;;;;;;14.60;8.90;;;2.80;99.90;;;;;;5066072;28;20066;-46
2022/01/09 09:25:27;;;;;;;18.20;8.35;;;2.80;99.90;;;;;;5062419;28;20013;-45
2022/01/09 09:27:52;;;;;;;12.25;8.15;;;2.80;99.90;;;;;;5067074;28;20071;-45
2022/01/09 09:30:18;;;;;;;12.35;8.23;;;2.90;99.90;;;;;;5066743;28;20021;-45
2022/01/09 09:32:44;;;;;;;11.30;7.72;;;3.00;99.90;;;;;;5068707;28;20157;-45
2022/01/09 09:35:10;;;;;;;11.05;6.82;;;3.00;99.90;;;;;;5068338;28;20050;-45
2022/01/09 09:37:36;;;;;;;10.40;7.10;;;3.10;99.90;;;;;;5067511;28;20032;-45
2022/01/09 09:40:02;;;;;;;9.40;7.18;;;3.20;99.90;;;;;;5068091;28;20077;-45
2022/01/09 09:42:28;;;;;;;10.57;5.85;;;3.20;99.90;;;;;;5066964;28;20279;-45
2022/01/09 09:44:53;;;;;;;8.90;6.10;;;3.30;99.90;;;;;;5066100;28;20502;-48
2022/01/09 09:47:20;;;;;;;8.63;5.78;;;3.30;99.90;;;;;;5067023;28;20024;-45
2022/01/09 09:49:47;;;;;;;9.95;6.72;;;3.30;99.90;;;;;;5065904;28;20498;-46
2022/01/09 09:52:17;;;;;;;10.30;5.78;;;3.40;99.90;;;;;;5062140;28;20036;-46
2022/01/09 09:54:43;;;;;;;8.55;5.75;;;3.30;99.90;;;;;;5061154;28;20020;-46
2022/01/09 09:57:09;;;;;;;7.70;5.60;;;3.40;99.90;;;;;;5067293;28;20450;-45
2022/01/09 09:59:36;;;;;;;8.00;5.00;;;3.40;99.90;;;;;;5067327;28;20025;-45
2022/01/09 10:02:08;;;;;;;5.90;3.97;;;3.40;99.90;;;;;;5070831;28;20150;-44
2022/01/09 10:04:33;;;;;;;3.70;2.58;;;3.50;99.90;;;;;;5079120;28;20016;-46
2022/01/09 10:06:59;;;;;;;3.35;2.47;;;3.50;99.90;;;;;;5088103;28;20034;-45
2022/01/09 10:09:25;;;;;;;3.08;2.10;;;3.60;99.90;;;;;;5086722;28;20054;-46
2022/01/09 10:11:55;;;;;;;2.05;1.90;;;3.60;99.90;;;;;;5065660;28;20036;-45
2022/01/09 10:14:21;;;;;;;;;;;3.60;99.90;;;;;;5066615;28;20593;-46
2022/01/09 10:17:06;;;;;;;1.60;1.50;;;3.60;99.90;;;;;;5067048;28;20397;-46
2022/01/09 10:19:46;;;;;;;1.52;1.40;;;3.60;99.90;;;;;;5064411;28;20024;-46
2022/01/09 10:22:22;;;;;;;1.50;1.40;;;3.60;99.90;;;;;;5063073;28;20482;-45
2022/01/09 10:24:47;;;;;;;1.95;1.45;;;3.60;99.90;;;;;;5067093;28;20440;-45
2022/01/09 10:27:26;;;;;;;2.15;1.83;;;3.60;99.90;;;;;;5066961;28;20024;-46
2022/01/09 10:29:53;;;;;;;1.70;1.50;;;3.50;99.90;;;;;;5068000;28;20401;-44
2022/01/09 10:32:20;;;;;;;1.70;1.60;;;3.50;99.90;;;;;;5075030;28;20020;-44
2022/01/09 10:35:05;;;;;;;2.38;1.88;;;3.50;99.90;;;;;;5078436;28;20044;-47
2022/01/09 10:37:30;;;;;;;2.13;1.77;;;3.60;99.90;;;;;;5089052;28;20077;-44
2022/01/09 10:40:00;;;;;;;7.88;3.17;;;3.60;99.90;;;;;;5088029;28;20424;-44
2022/01/09 10:42:26;;;;;;;2.10;1.80;;;3.60;99.90;;;;;;5088749;28;20095;-44
2022/01/09 10:44:52;;;;;;;2.85;2.08;;;3.50;99.90;;;;;;5088775;28;20047;-44
2022/01/09 10:47:18;;;;;;;2.35;1.90;;;3.50;99.90;;;;;;5088845;28;20064;-44
2022/01/09 10:49:48;;;;;;;2.78;2.53;;;3.50;99.90;;;;;;5087696;28;20105;-44
2022/01/09 10:52:16;;;;;;;3.35;2.40;;;3.40;99.90;;;;;;5078162;28;20075;-44
2022/01/09 10:54:46;;;;;;;2.78;2.40;;;3.50;99.90;;;;;;5057447;28;20040;-45
2022/01/09 10:57:15;;;;;;;3.17;2.30;;;3.50;99.90;;;;;;5057319;28;20580;-44
2022/01/09 10:59:41;;;;;;;2.45;2.22;;;3.50;99.90;;;;;;5056773;28;20172;-47
2022/01/09 11:02:07;;;;;;;3.47;2.95;;;3.40;99.90;;;;;;5055108;28;20033;-44
2022/01/09 11:04:34;;;;;;;3.08;2.78;;;3.40;99.90;;;;;;5066163;28;20341;-45
2022/01/09 11:07:00;;;;;;;3.97;3.15;;;3.30;99.90;;;;;;5088850;28;20571;-44
2022/01/09 11:09:27;;;;;;;4.18;3.00;;;3.20;99.90;;;;;;5086683;28;20114;-45
2022/01/09 11:11:55;;;;;;;3.92;2.95;;;3.30;99.90;;;;;;5068750;28;20035;-44
2022/01/09 11:14:23;;;;;;;3.20;2.85;;;3.30;99.90;;;;;;5068986;28;20413;-44
2022/01/09 11:16:54;;;;;;;4.22;3.40;;;3.20;99.90;;;;;;5068827;28;20020;-44
2022/01/09 11:19:24;;;;;;;3.33;3.00;;;3.20;99.90;;;;;;5067862;28;20023;-47
2022/01/09 11:21:56;;;;;;;3.17;2.60;;;3.20;99.90;;;;;;5068417;28;20028;-44
2022/01/09 11:24:37;;;;;;;5.22;3.00;;;3.20;99.90;;;;;;5061109;28;20471;-44
2022/01/09 11:27:17;;;;;;;3.55;3.25;;;3.20;99.90;;;;;;5069257;28;20277;-44
2022/01/09 11:30:03;;;;;;;3.28;2.85;;;3.30;99.90;;;;;;5071345;28;20028;-43
2022/01/09 11:32:37;;;;;;;5.30;3.20;;;3.30;99.90;;;;;;5062983;28;20103;-43
2022/01/09 11:35:08;;;;;;;4.00;2.90;;;3.30;99.90;;;;;;5075988;28;20107;-43
2022/01/09 11:38:01;;;;;;;7.50;3.00;;;3.20;99.90;;;;;;5072249;28;20563;-44
2022/01/09 11:40:31;;;;;;;5.38;3.22;;;3.20;99.90;;;;;;5071574;28;20051;-45
2022/01/09 11:43:14;;;;;;;5.03;3.33;;;3.20;99.90;;;;;;5072583;28;20023;-47
2022/01/09 11:45:55;;;;;;;5.32;3.17;;;3.20;99.90;;;;;;5072098;28;20563;-44
2022/01/09 11:48:57;;;;;;;7.65;3.55;;;3.20;99.90;;;;;;5071461;28;20116;-46
2022/01/09 11:51:28;;;;;;;5.35;4.03;;;3.20;99.90;;;;;;5072055;28;20020;-45
2022/01/09 11:53:53;;;;;;;;;;;3.20;99.90;;;;;;5072536;28;20024;-46
2022/01/09 11:56:49;;;;;;;7.85;4.05;;;3.20;99.90;;;;;;5071811;28;20393;-47
2022/01/09 11:59:29;;;;;;;6.10;4.05;;;3.30;99.90;;;;;;5071309;28;20025;-45
2022/01/09 12:02:00;;;;;;;10.07;3.80;;;3.30;99.90;;;;;;5071825;28;20028;-46
2022/01/09 12:04:49;;;;;;;5.40;3.58;;;3.30;99.90;;;;;;5079666;28;20070;-45
2022/01/09 12:07:19;;;;;;;7.05;4.03;;;3.30;99.90;;;;;;5051212;28;20398;-46
2022/01/09 12:09:47;;;;;;;7.45;3.33;;;3.40;99.90;;;;;;5051087;28;20609;-47
2022/01/09 12:12:20;;;;;;;10.23;4.72;;;3.40;99.90;;;;;;5051698;28;20044;-45
2022/01/09 12:14:55;;;;;;;6.50;3.80;;;3.40;99.90;;;;;;5051539;28;20025;-45
2022/01/09 12:17:21;;;;;;;5.13;3.60;;;3.50;99.90;;;;;;5051436;28;20025;-46
2022/01/09 12:20:03;;;;;;;7.38;4.13;;;3.50;99.90;;;;;;5050558;28;20027;-44
2022/01/09 12:25:22;;;;;;;6.25;3.88;;;3.70;99.90;;;;;;5051532;28;20029;-44
2022/01/09 12:27:54;;;;;;;8.57;3.78;;;3.70;99.90;;;;;;5051355;28;20181;-45
2022/01/09 12:30:41;;;;;;;6.95;3.85;;;3.70;99.90;;;;;;5050540;28;20033;-44
2022/01/09 12:33:09;;;;;;;7.80;4.30;;;3.70;99.90;;;;;;5055403;28;20107;-45
2022/01/09 12:35:40;;;;;;;8.63;4.05;;;3.70;99.90;;;;;;5079653;28;20024;-47
2022/01/09 12:38:06;;;;;;;9.43;4.45;;;3.80;99.90;;;;;;5087698;28;20056;-47
2022/01/09 12:40:40;;;;;;;7.60;3.85;;;3.80;99.90;;;;;;5083883;28;20056;-45
2022/01/09 12:43:06;;;;;;;6.18;3.67;;;3.80;99.90;;;;;;5061647;28;20012;-44
2022/01/09 12:45:38;;;;;;;10.50;4.55;;;3.80;99.90;;;;;;5069548;28;20112;-44
2022/01/09 12:48:05;;;;;;;8.50;5.18;;;3.80;99.90;;;;;;5070506;28;20115;-44
2022/01/09 12:50:39;;;;;;;7.15;4.13;;;3.80;99.90;;;;;;5070308;28;20441;-44
2022/01/09 12:53:24;;;;;;;8.55;4.65;;;3.90;99.90;;;;;;5071240;28;20021;-47
2022/01/09 12:56:06;;;;;;;12.52;6.10;;;3.90;99.90;;;;;;5071128;28;20126;-46
2022/01/09 12:58:42;;;;;;;13.00;6.32;;;4.00;99.90;;;;;;5070709;28;20497;-46
2022/01/09 13:01:10;;;;;;;12.88;6.75;;;3.90;99.90;;;;;;5069364;28;20123;-44